Time;durP1;ratioP1;P1;durP2;ratioP2;P2;SDS_P1;SDS_P2;PMS_P1;PMS_P2;Temp;Humidity;BMP_temperature;BMP_pressure;BME280_temperature;BME280_humidity;BME280_pressure;Samples;Min_cycle;Max_cycle;Signal;HPM_P1;HPM_P2
2023/01/29 00:00:16;;;;;;;8.15;3.97;;;;;;;9.58;85.78;101105.53;5026607;28;20046;-78
2023/01/29 00:02:46;;;;;;;12.68;4.43;;;;;;;9.56;85.08;101107.16;5026416;28;20045;-78
2023/01/29 00:05:15;;;;;;;14.38;4.10;;;;;;;9.53;85.90;101096.69;5020172;28;20057;-77
2023/01/29 00:07:44;;;;;;;6.20;3.28;;;;;;;9.52;85.74;101092.38;5028393;28;20053;-79
2023/01/29 00:10:13;;;;;;;5.13;2.60;;;;;;;9.51;87.18;101088.03;5029264;28;20041;-77
2023/01/29 00:12:41;;;;;;;3.53;1.83;;;;;;;9.50;86.78;101081.09;5017464;28;20050;-79
2023/01/29 00:15:10;;;;;;;2.28;1.23;;;;;;;9.47;86.47;101083.56;5025815;28;20489;-79
2023/01/29 00:17:39;;;;;;;2.22;1.50;;;;;;;9.44;86.37;101087.78;5025081;28;20050;-76
2023/01/29 00:20:10;;;;;;;2.50;1.40;;;;;;;9.40;86.61;101088.47;5026488;28;20637;-76
2023/01/29 00:22:39;;;;;;;2.85;1.45;;;;;;;9.38;88.79;101082.38;5026133;28;20121;-77
2023/01/29 00:25:09;;;;;;;3.70;1.50;;;;;;;9.34;90.08;101082.19;5022874;28;20053;-78
2023/01/29 00:27:37;;;;;;;4.03;1.55;;;;;;;9.26;91.00;101081.91;5028935;28;20068;-78
2023/01/29 00:30:11;;;;;;;3.25;1.55;;;;;;;9.20;92.69;101081.63;5023817;28;20539;-78
2023/01/29 00:32:40;;;;;;;1.63;1.05;;;;;;;9.15;93.52;101078.88;5029686;28;20045;-80
2023/01/29 00:35:11;;;;;;;4.35;1.40;;;;;;;9.12;93.54;101086.50;5019364;28;20060;-77
2023/01/29 00:37:40;;;;;;;2.35;1.02;;;;;;;9.07;94.65;101085.44;5017266;28;20056;-78
2023/01/29 00:40:10;;;;;;;2.78;1.00;;;;;;;9.04;94.34;101087.88;5021143;28;20049;-80
2023/01/29 00:45:24;;;;;;;2.13;1.30;;;;;;;8.96;94.34;101094.44;5030673;28;20525;-79
2023/01/29 00:47:52;;;;;;;1.63;0.80;;;;;;;8.93;95.07;101095.19;5029842;28;20069;-80
2023/01/29 00:50:23;;;;;;;8.60;1.10;;;;;;;8.91;95.77;101093.34;5024618;28;20060;-79
2023/01/29 00:52:53;;;;;;;2.83;0.82;;;;;;;8.86;95.69;101095.72;5031208;28;20050;-79
2023/01/29 00:55:22;;;;;;;2.85;0.80;;;;;;;8.80;96.64;101096.38;5029459;28;20046;-82
2023/01/29 00:57:50;;;;;;;2.33;1.10;;;;;;;8.73;96.90;101094.34;5023858;28;20050;-77
2023/01/29 01:00:20;;;;;;;3.58;1.35;;;;;;;8.73;98.03;101094.34;5022349;28;20053;-78
2023/01/29 01:03:05;;;;;;;1.70;0.90;;;;;;;8.73;98.17;101084.03;5013887;28;20062;-77
2023/01/29 01:05:37;;;;;;;2.13;1.23;;;;;;;8.65;98.02;101085.41;5021776;28;20045;-79
2023/01/29 01:10:19;;;;;;;1.25;1.00;;;;;;;8.74;97.99;101088.38;5033288;28;20083;-79
2023/01/29 01:11:03;;;;;;;1.73;0.98;;;;;;;8.76;99.08;101094.47;5032477;28;20453;-79
2023/01/29 01:13:33;;;;;;;3.38;1.15;;;;;;;8.76;98.06;101085.84;5014764;28;20042;-84
2023/01/29 01:16:02;;;;;;;1.75;0.90;;;;;;;8.75;97.79;101094.41;5029177;28;20053;-83
2023/01/29 01:18:31;;;;;;;2.70;1.00;;;;;;;8.74;97.18;101087.50;5025519;28;20072;-82
2023/01/29 01:21:02;;;;;;;2.33;1.10;;;;;;;8.75;96.98;101096.97;5031475;28;20042;-83
2023/01/29 01:23:30;;;;;;;2.63;1.08;;;;;;;8.74;96.83;101100.38;5027329;28;20042;-83
2023/01/29 01:25:59;;;;;;;4.28;1.10;;;;;;;8.73;95.80;101090.91;5028640;28;20161;-82
2023/01/29 01:28:28;;;;;;;2.13;0.90;;;;;;;8.72;96.98;101092.56;5033104;28;20080;-83
2023/01/29 01:30:57;;;;;;;2.17;1.25;;;;;;;8.73;97.73;101099.50;5021372;28;20056;-81
2023/01/29 01:33:25;;;;;;;1.35;0.98;;;;;;;8.72;97.67;101104.59;5032504;28;20506;-81
2023/01/29 01:35:54;;;;;;;2.67;1.20;;;;;;;8.66;97.42;101109.47;5022883;28;20044;-79
2023/01/29 01:38:24;;;;;;;0.75;0.60;;;;;;;8.47;88.73;101103.53;5031539;28;20048;-81
2023/01/29 01:40:52;;;;;;;1.27;0.60;;;;;;;8.35;86.79;101115.88;5023475;28;20076;-80
2023/01/29 01:43:21;;;;;;;1.17;0.45;;;;;;;8.19;85.65;101120.34;5031911;28;20060;-82
2023/01/29 01:45:50;;;;;;;0.52;0.30;;;;;;;8.00;85.16;101106.56;5011210;28;20464;-76
2023/01/29 01:48:22;;;;;;;0.20;0.20;;;;;;;7.86;86.49;101111.97;5012157;28;20205;-77
2023/01/29 01:50:54;;;;;;;0.40;0.30;;;;;;;7.68;86.73;101122.28;5020903;28;20054;-80
2023/01/29 01:53:30;;;;;;;0.63;0.27;;;;;;;7.52;87.17;101120.69;5003802;28;20053;-77
2023/01/29 01:56:02;;;;;;;0.52;0.30;;;;;;;7.31;87.43;101125.69;5012270;28;20059;-77
2023/01/29 01:58:35;;;;;;;0.40;0.40;;;;;;;7.14;89.95;101127.41;5008812;28;20053;-74
2023/01/29 02:01:07;;;;;;;0.30;0.20;;;;;;;7.03;91.62;101114.84;5011483;28;20645;-74
2023/01/29 02:09:34;;;;;;;0.52;0.32;;;;;;;6.57;95.62;101133.09;5009922;28;20079;-73
2023/01/29 02:12:05;;;;;;;0.43;0.17;;;;;;;6.43;95.41;101129.81;5011107;28;20153;-75
2023/01/29 02:14:37;;;;;;;0.70;0.38;;;;;;;6.34;97.02;101134.47;5011731;28;20084;-73
2023/01/29 02:17:07;;;;;;;0.43;0.28;;;;;;;6.21;97.10;101135.53;5012372;28;20046;-74
2023/01/29 02:19:47;;;;;;;0.45;0.40;;;;;;;6.12;97.91;101145.31;5013552;28;20109;-72
2023/01/29 02:22:38;;;;;;;0.20;0.20;;;;;;;6.01;96.79;101143.03;5010989;28;20124;-74
2023/01/29 02:28:32;;;;;;;0.80;0.30;;;;;;;5.91;98.78;101153.59;4734940;27;9410254;-77
2023/01/29 02:31:08;;;;;;;0.85;0.40;;;;;;;5.86;98.29;101160.13;5048561;28;20046;-78
2023/01/29 02:33:53;;;;;;;0.93;0.60;;;;;;;5.78;99.93;101166.56;5056856;28;20128;-79
2023/01/29 02:36:32;;;;;;;0.38;0.28;;;;;;;5.70;98.73;101171.25;5053479;28;20048;-79
2023/01/29 02:39:11;;;;;;;0.55;0.30;;;;;;;5.54;98.46;101155.78;5047662;28;20053;-79
2023/01/29 02:41:45;;;;;;;1.13;0.45;;;;;;;5.53;100.00;101175.44;5047214;28;20095;-78
2023/01/29 02:44:22;;;;;;;0.43;0.30;;;;;;;5.45;100.00;101181.81;5047315;28;20084;-79
2023/01/29 02:46:58;;;;;;;0.10;0.10;;;;;;;5.38;100.00;101179.69;5028681;28;20054;-78
2023/01/29 02:49:35;;;;;;;0.17;0.10;;;;;;;5.31;100.00;101191.28;5026180;28;20538;-78
2023/01/29 02:52:09;;;;;;;0.50;0.30;;;;;;;5.24;100.00;101196.88;5028241;28;20053;-78
2023/01/29 02:54:46;;;;;;;0.20;0.20;;;;;;;5.17;100.00;101198.19;5023837;28;20053;-77
2023/01/29 02:57:20;;;;;;;0.50;0.30;;;;;;;5.08;100.00;101202.78;5027957;28;20053;-78
2023/01/29 02:59:55;;;;;;;0.60;0.30;;;;;;;5.05;100.00;101210.31;5027548;28;20128;-79
2023/01/29 03:02:31;;;;;;;0.73;0.20;;;;;;;4.96;100.00;101210.66;5027025;28;20057;-78
2023/01/29 03:05:03;;;;;;;0.47;0.30;;;;;;;4.95;100.00;101219.16;5025892;28;20080;-80
2023/01/29 03:07:43;;;;;;;1.27;0.20;;;;;;;4.94;100.00;101222.50;5030091;28;20523;-79
2023/01/29 03:10:17;;;;;;;0.32;0.17;;;;;;;4.85;100.00;101223.63;5031603;28;20069;-75
2023/01/29 03:12:48;;;;;;;0.43;0.22;;;;;;;4.86;100.00;101227.97;5033961;28;20053;-81
2023/01/29 03:15:24;;;;;;;0.17;0.10;;;;;;;4.89;100.00;101233.28;5031030;28;20049;-80
2023/01/29 03:17:58;;;;;;;0.47;0.10;;;;;;;4.89;100.00;101233.28;5031968;28;20038;-76
2023/01/29 03:20:34;;;;;;;1.75;0.57;;;;;;;4.84;100.00;101240.69;5028836;28;20046;-76
2023/01/29 03:23:12;;;;;;;1.67;0.30;;;;;;;4.76;100.00;101240.22;5027632;28;20046;-75
2023/01/29 03:34:17;;;;;;;0.28;0.17;;;;;;;4.55;100.00;101256.84;5006836;28;20057;-76
2023/01/29 03:36:54;;;;;;;0.30;0.25;;;;;;;4.47;100.00;101264.09;5002926;28;20053;-75
2023/01/29 03:39:27;;;;;;;0.85;0.20;;;;;;;4.43;100.00;101271.47;4992199;28;20420;-75
2023/01/29 03:42:00;;;;;;;0.00;0.00;;;;;;;4.38;100.00;101272.06;4991994;28;20129;-74
2023/01/29 03:44:34;;;;;;;;;;;;;;;4.35;100.00;101269.34;4991502;28;20057;-75
2023/01/29 03:47:17;;;;;;;0.10;0.10;;;;;;;4.33;100.00;101268.34;4986041;28;19976;-76
2023/01/29 03:49:57;;;;;;;0.25;0.20;;;;;;;4.34;100.00;101266.66;4991188;28;20043;-72
2023/01/29 03:52:29;;;;;;;1.13;0.40;;;;;;;4.33;100.00;101287.94;4993382;28;20519;-76
2023/01/29 03:55:05;;;;;;;0.77;0.15;;;;;;;4.23;100.00;101283.91;4990029;28;20054;-73
2023/01/29 03:57:39;;;;;;;0.13;0.10;;;;;;;4.22;100.00;101287.28;4997068;28;20062;-75
2023/01/29 04:00:14;;;;;;;0.20;0.20;;;;;;;4.25;100.00;101287.47;4992501;28;20050;-75
2023/01/29 04:02:52;;;;;;;0.15;0.05;;;;;;;4.28;100.00;101282.50;4993833;28;20074;-75
2023/01/29 04:05:25;;;;;;;0.90;0.32;;;;;;;4.29;100.00;101289.44;4994077;28;20058;-74
2023/01/29 04:08:00;;;;;;;0.10;0.10;;;;;;;4.33;100.00;101296.53;4993784;28;20237;-74
2023/01/29 04:10:30;;;;;;;0.17;0.15;;;;;;;4.34;100.00;101299.97;4990040;28;20042;-74
2023/01/29 04:13:02;;;;;;;0.08;0.00;;;;;;;4.26;100.00;101298.59;5004308;28;20045;-74
2023/01/29 04:15:35;;;;;;;0.47;0.30;;;;;;;4.31;100.00;101302.34;4993646;28;20053;-76
2023/01/29 04:18:05;;;;;;;;;;;;;;;4.34;100.00;101297.41;4995069;28;20050;-74
2023/01/29 04:20:34;;;;;;;0.43;0.15;;;;;;;4.33;99.11;101303.31;4992843;28;19950;-76
2023/01/29 04:23:03;;;;;;;0.30;0.13;;;;;;;4.33;96.16;101309.34;4994859;28;20129;-77
2023/01/29 04:25:43;;;;;;;0.10;0.10;;;;;;;4.39;95.57;101311.38;4996264;28;20081;-78
2023/01/29 04:28:20;;;;;;;1.42;0.30;;;;;;;4.41;94.29;101315.81;5008306;28;20151;-75
2023/01/29 04:30:54;;;;;;;0.20;0.20;;;;;;;4.45;94.11;101314.34;5013591;28;20104;-78
2023/01/29 04:33:33;;;;;;;0.30;0.22;;;;;;;4.45;92.21;101326.28;5011141;28;20042;-75
2023/01/29 04:36:16;;;;;;;0.30;0.25;;;;;;;4.48;93.92;101335.03;5010939;28;20053;-76
2023/01/29 04:38:55;;;;;;;0.40;0.30;;;;;;;4.50;93.53;101338.56;5011800;28;20041;-74
2023/01/29 04:41:30;;;;;;;0.77;0.32;;;;;;;4.46;93.93;101338.28;5010151;28;20062;-76
2023/01/29 04:44:06;;;;;;;0.70;0.40;;;;;;;4.52;92.97;101359.19;5009732;28;20679;-75
2023/01/29 04:46:45;;;;;;;1.25;0.22;;;;;;;4.53;92.25;101356.69;5009502;28;20516;-75
2023/01/29 04:49:28;;;;;;;0.32;0.30;;;;;;;4.54;93.12;101370.44;5011610;28;20046;-74
2023/01/29 04:52:04;;;;;;;0.40;0.20;;;;;;;4.56;92.93;101372.28;5008354;28;20092;-73
2023/01/29 04:54:46;;;;;;;0.88;0.30;;;;;;;4.55;91.87;101370.50;5013048;28;20539;-74
2023/01/29 04:57:24;;;;;;;0.65;0.50;;;;;;;4.57;91.83;101383.41;5003283;28;20085;-74
2023/01/29 04:59:59;;;;;;;0.88;0.50;;;;;;;4.59;90.50;101392.09;5008257;28;20081;-73
2023/01/29 05:02:29;;;;;;;0.38;0.38;;;;;;;4.59;90.70;101398.09;5011930;28;20050;-75
2023/01/29 05:05:00;;;;;;;0.47;0.40;;;;;;;4.61;90.31;101403.34;5005524;28;20181;-72
2023/01/29 05:07:31;;;;;;;0.88;0.43;;;;;;;4.61;90.28;101408.47;5011248;28;20245;-74
2023/01/29 05:10:01;;;;;;;0.43;0.40;;;;;;;4.59;89.40;101407.47;5017252;28;20045;-73
2023/01/29 05:12:31;;;;;;;0.50;0.40;;;;;;;4.57;87.25;101414.19;5027057;28;20049;-74
2023/01/29 05:15:04;;;;;;;0.57;0.30;;;;;;;4.55;86.08;101418.31;5010648;28;20049;-75
2023/01/29 05:17:32;;;;;;;0.82;0.38;;;;;;;4.53;87.23;101413.06;5015283;28;20050;-74
2023/01/29 05:20:03;;;;;;;0.40;0.30;;;;;;;4.53;86.35;101417.31;5009625;28;20076;-80
2023/01/29 05:22:32;;;;;;;1.63;0.68;;;;;;;4.51;85.62;101419.81;5012087;28;20056;-76
2023/01/29 05:25:00;;;;;;;0.73;0.40;;;;;;;4.47;84.28;101416.94;5012859;28;20380;-76
2023/01/29 05:30:20;;;;;;;0.20;0.20;;;;;;;4.43;82.85;101426.09;5010405;28;20487;-77
2023/01/29 05:32:49;;;;;;;1.00;0.52;;;;;;;4.42;85.02;101439.69;5007173;28;20119;-76
2023/01/29 05:35:19;;;;;;;0.30;0.20;;;;;;;4.36;82.53;101435.06;5011020;28;20050;-77
2023/01/29 05:37:48;;;;;;;0.68;0.30;;;;;;;4.35;82.80;101441.00;5007230;28;20058;-76
2023/01/29 05:40:16;;;;;;;0.98;0.43;;;;;;;4.35;82.80;101447.75;5009314;28;20413;-76
2023/01/29 05:42:45;;;;;;;0.40;0.40;;;;;;;4.34;81.80;101444.31;5011229;28;20050;-75
2023/01/29 05:45:13;;;;;;;1.42;0.60;;;;;;;4.32;81.32;101443.31;5011880;28;20120;-76
2023/01/29 05:47:42;;;;;;;0.70;0.57;;;;;;;4.30;81.19;101452.59;5005834;28;20068;-77
2023/01/29 05:50:12;;;;;;;0.85;0.25;;;;;;;4.25;80.96;101456.53;5001525;28;20060;-78
2023/01/29 05:52:42;;;;;;;1.60;0.38;;;;;;;4.19;80.74;101458.66;5007024;28;20041;-77
2023/01/29 05:55:11;;;;;;;1.15;0.55;;;;;;;4.14;80.07;101460.03;5008378;28;20436;-75
2023/01/29 05:57:41;;;;;;;4.38;0.50;;;;;;;4.12;80.37;101470.22;5009467;28;20041;-76
2023/01/29 06:00:11;;;;;;;1.17;0.47;;;;;;;4.09;80.29;101469.97;5004884;28;20042;-74
2023/01/29 06:02:40;;;;;;;0.30;0.30;;;;;;;4.07;80.86;101481.78;5007531;28;20128;-76
2023/01/29 06:05:10;;;;;;;1.45;0.40;;;;;;;4.01;80.38;101485.63;5004768;28;20511;-75
2023/01/29 06:07:43;;;;;;;0.30;0.30;;;;;;;3.94;79.62;101481.75;5008520;28;20695;-76
2023/01/29 06:10:16;;;;;;;0.70;0.40;;;;;;;3.92;79.51;101507.28;5016425;28;20049;-76
2023/01/29 06:12:45;;;;;;;0.75;0.47;;;;;;;3.88;79.35;101505.28;5015235;28;20108;-76
2023/01/29 06:15:15;;;;;;;1.08;0.52;;;;;;;3.86;79.17;101511.97;5002991;28;20053;-77
2023/01/29 06:17:43;;;;;;;0.32;0.28;;;;;;;3.81;79.66;101517.56;5008154;28;20084;-75
2023/01/29 06:20:13;;;;;;;0.70;0.38;;;;;;;3.80;78.48;101516.66;5008346;28;20765;-77
2023/01/29 06:22:41;;;;;;;1.20;0.50;;;;;;;3.79;77.79;101517.44;5012564;28;20573;-78
2023/01/29 06:25:10;;;;;;;0.70;0.43;;;;;;;3.73;76.99;101519.56;5002019;28;20057;-75
2023/01/29 06:27:41;;;;;;;0.68;0.47;;;;;;;3.68;75.31;101526.06;5013098;28;20077;-75
2023/01/29 06:30:10;;;;;;;0.45;0.30;;;;;;;3.67;76.21;101529.41;5009591;28;20053;-75
2023/01/29 06:32:39;;;;;;;0.45;0.20;;;;;;;3.68;76.61;101533.72;5008695;28;20046;-75
2023/01/29 06:35:09;;;;;;;1.60;0.73;;;;;;;3.65;76.13;101539.53;5001980;28;20058;-76
2023/01/29 06:37:37;;;;;;;0.28;0.28;;;;;;;3.63;74.19;101537.66;5010884;28;20049;-78
2023/01/29 06:40:07;;;;;;;0.68;0.45;;;;;;;3.60;74.16;101545.09;5009881;28;20523;-74
2023/01/29 06:42:36;;;;;;;0.85;0.43;;;;;;;3.56;73.04;101546.56;5012510;28;20057;-76
2023/01/29 06:45:07;;;;;;;0.55;0.28;;;;;;;3.55;73.09;101548.25;5009513;28;20636;-77
2023/01/29 06:47:36;;;;;;;1.55;0.77;;;;;;;3.53;72.82;101549.81;5001324;28;20323;-77
2023/01/29 06:50:05;;;;;;;1.08;0.40;;;;;;;3.55;72.60;101557.56;5011739;28;20054;-77
2023/01/29 06:52:34;;;;;;;0.70;0.30;;;;;;;3.50;70.21;101567.47;5009296;28;20049;-79
2023/01/29 06:55:03;;;;;;;0.38;0.30;;;;;;;3.46;70.76;101568.06;5010148;28;20045;-78
2023/01/29 06:57:32;;;;;;;1.20;0.40;;;;;;;3.46;68.80;101575.72;5010470;28;20065;-76
2023/01/29 07:00:00;;;;;;;0.75;0.40;;;;;;;3.44;68.33;101584.97;5006793;28;20050;-76
2023/01/29 07:02:30;;;;;;;0.40;0.40;;;;;;;3.42;68.15;101578.84;5007614;28;20042;-79
2023/01/29 07:04:59;;;;;;;1.77;0.45;;;;;;;3.41;68.74;101587.28;5011058;28;20050;-77
2023/01/29 07:07:27;;;;;;;0.75;0.47;;;;;;;3.41;68.47;101597.50;5008628;28;20134;-79
2023/01/29 07:09:56;;;;;;;0.80;0.50;;;;;;;3.40;67.43;101594.88;5008150;28;20050;-80
2023/01/29 07:12:24;;;;;;;0.38;0.30;;;;;;;3.36;63.54;101603.97;5010866;28;20535;-81
2023/01/29 07:14:53;;;;;;;1.95;0.60;;;;;;;3.36;66.20;101609.09;5018132;28;20133;-82
2023/01/29 07:17:21;;;;;;;0.60;0.20;;;;;;;3.31;63.78;101607.88;5015524;28;20050;-79
2023/01/29 07:19:52;;;;;;;0.85;0.55;;;;;;;3.28;64.60;101611.13;5019240;28;20065;-80
2023/01/29 07:22:20;;;;;;;1.75;0.70;;;;;;;3.27;64.63;101603.31;5013713;28;20049;-78
2023/01/29 07:24:49;;;;;;;0.52;0.30;;;;;;;3.25;64.12;101609.97;5017059;28;20115;-80
2023/01/29 07:27:17;;;;;;;0.82;0.50;;;;;;;3.23;63.06;101604.78;5013052;28;20061;-80
2023/01/29 07:29:46;;;;;;;0.75;0.47;;;;;;;3.21;62.50;101605.41;5013440;28;20038;-80
2023/01/29 07:32:14;;;;;;;1.65;0.47;;;;;;;3.19;63.51;101610.44;5008705;28;20053;-79
2023/01/29 07:34:43;;;;;;;0.80;0.30;;;;;;;3.15;63.27;101599.09;5014748;28;20669;-80
2023/01/29 07:37:13;;;;;;;0.57;0.40;;;;;;;3.10;61.10;101610.66;5014487;28;20428;-81
2023/01/29 07:39:41;;;;;;;0.90;0.47;;;;;;;3.10;61.38;101615.78;5011201;28;20049;-80
2023/01/29 07:42:10;;;;;;;0.60;0.47;;;;;;;3.05;59.98;101622.22;5013416;28;20530;-81
2023/01/29 07:44:45;;;;;;;0.40;0.40;;;;;;;3.03;61.32;101626.34;5010144;28;20042;-79
2023/01/29 07:47:14;;;;;;;0.60;0.35;;;;;;;3.01;59.56;101639.78;5005497;28;20459;-79
2023/01/29 07:49:42;;;;;;;0.65;0.38;;;;;;;2.95;59.83;101629.97;5011889;28;20046;-78
2023/01/29 07:52:12;;;;;;;0.32;0.30;;;;;;;2.90;59.37;101641.53;5008174;28;20160;-78
2023/01/29 07:54:48;;;;;;;0.95;0.50;;;;;;;2.80;59.93;101626.31;5009537;28;20098;-79
2023/01/29 07:57:16;;;;;;;0.98;0.57;;;;;;;2.86;59.98;101649.75;5012626;28;20089;-79
2023/01/29 07:59:45;;;;;;;0.40;0.30;;;;;;;2.85;60.05;101647.97;5012561;28;20122;-79
2023/01/29 08:02:14;;;;;;;1.35;0.45;;;;;;;2.84;59.03;101651.28;5012175;28;20101;-79
2023/01/29 08:04:42;;;;;;;0.40;0.30;;;;;;;2.81;59.80;101651.06;5018254;28;20189;-80
2023/01/29 08:07:12;;;;;;;0.60;0.40;;;;;;;2.78;57.63;101645.75;5013345;28;20484;-79
2023/01/29 08:09:41;;;;;;;2.28;0.65;;;;;;;2.79;61.14;101642.41;5014210;28;20053;-78
2023/01/29 08:12:09;;;;;;;1.40;0.52;;;;;;;2.79;60.02;101655.19;5022941;28;20050;-84
2023/01/29 08:14:38;;;;;;;0.63;0.45;;;;;;;2.79;59.48;101653.50;5015515;28;20581;-79
2023/01/29 08:17:06;;;;;;;0.85;0.50;;;;;;;2.78;60.63;101668.75;5004189;28;20104;-79
2023/01/29 08:19:35;;;;;;;1.95;0.40;;;;;;;2.76;59.94;101662.63;5014046;28;20411;-80
2023/01/29 08:22:05;;;;;;;1.10;0.80;;;;;;;2.70;59.50;101663.94;5013307;28;20057;-80
2023/01/29 08:24:35;;;;;;;0.40;0.40;;;;;;;2.68;58.72;101668.06;5010068;28;20083;-78
2023/01/29 08:27:03;;;;;;;0.93;0.50;;;;;;;2.67;58.37;101661.13;5013404;28;20064;-78
2023/01/29 08:29:32;;;;;;;1.08;0.65;;;;;;;2.67;57.97;101670.47;5011221;28;20641;-78
2023/01/29 08:32:01;;;;;;;1.45;0.70;;;;;;;2.65;58.57;101675.47;5011082;28;20073;-78
2023/01/29 08:34:29;;;;;;;2.45;0.40;;;;;;;2.63;58.30;101671.91;5009760;28;20885;-78
2023/01/29 08:36:58;;;;;;;1.25;0.50;;;;;;;2.59;56.88;101677.56;5010697;28;20527;-78
2023/01/29 08:39:26;;;;;;;0.55;0.38;;;;;;;2.57;57.68;101671.44;5013448;28;20105;-79
2023/01/29 08:41:56;;;;;;;0.35;0.35;;;;;;;2.57;58.13;101684.22;5014084;28;20054;-79
2023/01/29 08:44:25;;;;;;;2.20;0.40;;;;;;;2.55;58.20;101688.31;5011423;28;20058;-76
2023/01/29 08:46:53;;;;;;;0.63;0.22;;;;;;;2.50;56.84;101689.66;5010080;28;20052;-76
2023/01/29 08:49:22;;;;;;;1.05;0.50;;;;;;;2.48;56.87;101697.19;5010997;28;20050;-78
2023/01/29 08:51:50;;;;;;;0.40;0.22;;;;;;;2.44;55.29;101695.16;5010064;28;20049;-77
2023/01/29 08:54:19;;;;;;;3.28;0.60;;;;;;;2.44;56.39;101697.72;5014035;28;20049;-76
2023/01/29 08:56:48;;;;;;;0.40;0.30;;;;;;;2.43;57.28;101707.84;5010822;28;20511;-78
2023/01/29 08:59:18;;;;;;;1.02;0.43;;;;;;;2.42;58.29;101703.47;5016899;28;20050;-78
2023/01/29 09:01:46;;;;;;;0.50;0.38;;;;;;;2.41;57.62;101709.38;5011518;28;20100;-77
2023/01/29 09:04:15;;;;;;;0.95;0.57;;;;;;;2.37;55.04;101694.56;5007752;28;20115;-74
2023/01/29 09:06:43;;;;;;;0.40;0.40;;;;;;;2.33;56.17;101700.22;5012487;28;20056;-76
2023/01/29 09:09:13;;;;;;;0.93;0.50;;;;;;;2.31;55.07;101715.41;5012018;28;20489;-78
2023/01/29 09:11:41;;;;;;;0.35;0.35;;;;;;;2.28;55.55;101708.41;4998666;28;20061;-77
2023/01/29 09:14:11;;;;;;;0.30;0.30;;;;;;;2.18;56.06;101693.16;5011282;28;20054;-76
2023/01/29 09:16:41;;;;;;;0.73;0.57;;;;;;;2.26;56.12;101709.94;5003455;28;20041;-77
2023/01/29 09:19:10;;;;;;;0.68;0.50;;;;;;;2.23;54.31;101709.72;5012224;28;20049;-78
2023/01/29 09:21:38;;;;;;;1.15;0.60;;;;;;;2.20;54.37;101709.47;5012849;28;20480;-80
2023/01/29 09:24:07;;;;;;;1.88;0.60;;;;;;;2.18;53.90;101710.13;5011922;28;20049;-77
2023/01/29 09:26:38;;;;;;;0.88;0.30;;;;;;;2.17;54.30;101709.22;5008687;28;20104;-79
2023/01/29 09:29:07;;;;;;;0.70;0.43;;;;;;;2.16;52.98;101716.78;5006940;28;20058;-77
2023/01/29 09:31:35;;;;;;;0.20;0.20;;;;;;;2.12;54.00;101713.09;5011619;28;20060;-79
2023/01/29 09:34:05;;;;;;;0.35;0.35;;;;;;;2.07;53.54;101714.38;5010577;28;20108;-77
2023/01/29 09:36:34;;;;;;;1.25;0.50;;;;;;;2.06;54.21;101725.34;5009712;28;20041;-76
2023/01/29 09:39:03;;;;;;;0.60;0.60;;;;;;;2.01;53.12;101726.66;5009503;28;20050;-78
2023/01/29 09:41:50;;;;;;;0.57;0.40;;;;;;;1.99;53.61;101743.50;5014753;28;20543;-78
2023/01/29 09:44:24;;;;;;;1.05;0.47;;;;;;;1.94;52.96;101752.47;5010054;28;20519;-75
2023/01/29 09:46:55;;;;;;;1.08;0.50;;;;;;;1.92;53.76;101751.44;5007313;28;20496;-78
2023/01/29 09:49:30;;;;;;;0.50;0.47;;;;;;;1.91;53.45;101757.34;5001908;28;20101;-79
2023/01/29 09:52:03;;;;;;;0.88;0.50;;;;;;;1.87;51.69;101759.63;5012057;28;20416;-77
2023/01/29 09:54:38;;;;;;;1.75;0.80;;;;;;;1.78;54.49;101753.78;5010668;28;20050;-75
2023/01/29 09:57:15;;;;;;;0.38;0.30;;;;;;;1.84;54.26;101771.25;5003940;28;20496;-76
2023/01/29 09:59:43;;;;;;;0.47;0.45;;;;;;;1.80;53.82;101771.78;5010812;28;20045;-78
2023/01/29 10:02:22;;;;;;;0.90;0.40;;;;;;;1.79;52.59;101770.88;5012329;28;20045;-76
2023/01/29 10:05:18;;;;;;;0.60;0.50;;;;;;;1.77;52.93;101790.28;5008464;28;20155;-75
2023/01/29 10:08:22;;;;;;;0.85;0.45;;;;;;;1.76;53.34;101796.13;5008543;28;20144;-77
2023/01/29 10:10:52;;;;;;;1.25;0.60;;;;;;;1.74;53.78;101802.81;5020485;28;20053;-77
2023/01/29 10:13:33;;;;;;;0.70;0.30;;;;;;;1.70;53.25;101810.09;4998256;28;20042;-74
2023/01/29 10:16:17;;;;;;;1.33;0.40;;;;;;;1.70;52.89;101807.53;5009035;28;20050;-77
2023/01/29 10:19:24;;;;;;;0.60;0.40;;;;;;;1.66;52.17;101808.94;5004594;28;20042;-77
2023/01/29 10:22:17;;;;;;;1.92;0.77;;;;;;;1.61;52.89;101813.66;4997769;28;20049;-75
2023/01/29 10:24:53;;;;;;;5.97;0.82;;;;;;;1.57;51.92;101820.94;5010519;28;20141;-74
2023/01/29 10:27:22;;;;;;;2.38;0.60;;;;;;;1.55;52.44;101840.31;5011032;28;20045;-73
2023/01/29 10:29:54;;;;;;;0.40;0.40;;;;;;;1.53;52.05;101846.94;5008366;28;20049;-77
2023/01/29 10:32:26;;;;;;;0.45;0.35;;;;;;;1.50;52.57;101849.25;5010567;28;20104;-73
2023/01/29 10:35:00;;;;;;;0.57;0.35;;;;;;;1.35;51.39;101843.75;5006491;28;20042;-74
2023/01/29 10:37:37;;;;;;;0.63;0.40;;;;;;;1.47;51.99;101860.09;5007639;28;20563;-74
2023/01/29 10:40:21;;;;;;;0.60;0.40;;;;;;;1.47;52.41;101877.94;5008593;28;20096;-74
2023/01/29 10:42:59;;;;;;;1.23;0.73;;;;;;;1.48;52.22;101876.28;5010632;28;20049;-74
2023/01/29 10:45:35;;;;;;;1.35;0.60;;;;;;;1.48;52.07;101894.13;5009502;28;20053;-74
2023/01/29 10:48:35;;;;;;;0.73;0.55;;;;;;;1.51;51.95;101897.81;5008142;28;20053;-74
2023/01/29 10:51:14;;;;;;;2.05;0.50;;;;;;;1.54;51.07;101904.88;5004155;28;20084;-75
2023/01/29 10:53:59;;;;;;;0.45;0.43;;;;;;;1.56;50.19;101908.41;5021863;28;20773;-73
2023/01/29 10:56:45;;;;;;;1.42;0.63;;;;;;;1.58;50.65;101907.78;5001082;28;20490;-73
2023/01/29 10:59:33;;;;;;;1.30;0.63;;;;;;;1.59;51.45;101901.91;5009292;28;20052;-74
2023/01/29 11:02:02;;;;;;;0.40;0.30;;;;;;;1.60;50.79;101905.34;5013996;28;20518;-73
2023/01/29 11:04:32;;;;;;;0.60;0.30;;;;;;;1.60;48.82;101910.44;5012023;28;20567;-74
2023/01/29 11:07:01;;;;;;;0.75;0.32;;;;;;;1.61;49.67;101908.03;5014351;28;20057;-74
2023/01/29 11:09:37;;;;;;;1.98;0.45;;;;;;;1.63;50.01;101915.84;5012640;28;20124;-74
2023/01/29 11:12:12;;;;;;;0.73;0.60;;;;;;;1.61;48.71;101918.25;5021118;28;20153;-74
2023/01/29 11:14:46;;;;;;;0.40;0.40;;;;;;;1.60;49.90;101915.56;5012307;28;20042;-74
2023/01/29 11:17:18;;;;;;;0.80;0.60;;;;;;;1.59;49.18;101926.53;5013199;28;20046;-74
2023/01/29 11:19:50;;;;;;;1.20;0.52;;;;;;;1.58;49.49;101938.41;5017612;28;20046;-73
2023/01/29 11:22:20;;;;;;;0.93;0.60;;;;;;;1.59;49.30;101949.50;5014265;28;20125;-74
2023/01/29 11:25:10;;;;;;;0.57;0.50;;;;;;;1.58;48.92;101950.25;5006142;28;20081;-74
2023/01/29 11:27:45;;;;;;;1.55;0.63;;;;;;;1.59;48.86;101957.16;5015553;28;20058;-74
2023/01/29 11:30:24;;;;;;;1.38;0.55;;;;;;;1.59;48.57;101959.69;5010713;28;20046;-73
2023/01/29 11:32:59;;;;;;;0.75;0.65;;;;;;;1.59;48.75;101969.91;5013219;28;20042;-74
2023/01/29 11:35:29;;;;;;;0.68;0.30;;;;;;;1.58;48.94;101963.91;5013884;28;20080;-74
2023/01/29 11:38:08;;;;;;;1.20;0.57;;;;;;;1.59;49.88;101969.91;5014923;28;20056;-74
2023/01/29 11:40:40;;;;;;;0.50;0.47;;;;;;;1.59;49.38;101964.81;5007561;28;20518;-74
2023/01/29 11:43:20;;;;;;;0.60;0.47;;;;;;;1.59;47.55;101969.91;5007664;28;20053;-74
2023/01/29 11:45:51;;;;;;;0.30;0.22;;;;;;;1.57;47.89;101968.88;5007476;28;20050;-73
2023/01/29 11:48:22;;;;;;;0.70;0.40;;;;;;;1.58;49.48;101986.88;5011259;28;20042;-73
2023/01/29 11:50:57;;;;;;;1.13;0.50;;;;;;;1.58;49.06;101988.50;5015040;28;20135;-74
2023/01/29 11:53:39;;;;;;;0.43;0.35;;;;;;;1.57;49.70;101986.75;5007030;28;20050;-73
2023/01/29 11:56:21;;;;;;;0.60;0.40;;;;;;;1.56;49.65;101988.41;5009613;28;20049;-74
2023/01/29 11:58:52;;;;;;;1.90;0.50;;;;;;;1.54;48.59;101997.56;5014259;28;20272;-74
2023/01/29 12:01:32;;;;;;;1.23;0.50;;;;;;;1.56;48.11;102002.78;5009503;28;20111;-72
2023/01/29 12:04:01;;;;;;;0.70;0.57;;;;;;;1.55;48.07;101998.47;5010249;28;20443;-72
2023/01/29 12:06:36;;;;;;;0.82;0.75;;;;;;;1.54;49.38;102007.78;5013766;28;20054;-73
2023/01/29 12:09:12;;;;;;;0.20;0.17;;;;;;;1.50;49.52;102009.94;5010110;28;20139;-73
2023/01/29 12:11:42;;;;;;;0.75;0.55;;;;;;;1.49;50.19;102023.44;5006508;28;20148;-75
2023/01/29 12:14:27;;;;;;;0.95;0.30;;;;;;;1.46;48.52;102035.16;5023749;28;20487;-73
2023/01/29 12:17:00;;;;;;;0.57;0.32;;;;;;;1.46;48.13;102050.47;5014432;28;20106;-73
2023/01/29 12:19:32;;;;;;;;;;;;;;;1.45;48.80;102042.69;5012615;28;20074;-73
2023/01/29 12:22:05;;;;;;;0.63;0.47;;;;;;;1.42;47.69;102042.41;5014916;28;20237;-74